createdAt,value
2023-03-27T00:05:20.549Z,77.70
2023-03-27T00:10:48.715Z,77.60
2023-03-27T00:16:16.618Z,77.50
2023-03-27T00:21:45.108Z,77.60
2023-03-27T00:27:12.846Z,77.60
2023-03-27T00:32:40.873Z,77.70
2023-03-27T00:38:09.641Z,77.80
2023-03-27T00:43:45.439Z,77.70
2023-03-27T00:49:16.493Z,77.60
2023-03-27T00:54:46.814Z,77.60
2023-03-27T01:00:17.120Z,77.50
2023-03-27T01:05:45.914Z,77.60
2023-03-27T01:11:39.617Z,77.70
2023-03-27T01:17:35.254Z,77.70
2023-03-27T01:23:58.399Z,77.80
2023-03-27T01:30:09.370Z,78.00
2023-03-27T01:35:53.067Z,78.00
2023-03-27T01:41:54.375Z,78.40
2023-03-27T01:47:54.952Z,78.70
2023-03-27T01:53:42.331Z,79.20
2023-03-27T01:59:17.263Z,79.60
2023-03-27T02:04:52.472Z,80.10
2023-03-27T02:10:29.499Z,80.40
2023-03-27T02:16:01.171Z,80.60
2023-03-27T02:21:31.516Z,81.10
2023-03-27T02:27:26.093Z,81.10
2023-03-27T02:33:42.887Z,81.20
2023-03-27T02:39:16.109Z,81.60
2023-03-27T02:50:38.503Z,81.30
2023-03-27T02:56:15.172Z,82.00
2023-03-27T03:01:45.620Z,82.10
2023-03-27T03:07:30.994Z,82.40
2023-03-27T03:18:28.047Z,82.10
2023-03-27T03:24:01.842Z,82.80
2023-03-27T03:29:35.462Z,82.40
2023-03-27T03:35:19.619Z,83.10
2023-03-27T03:40:48.748Z,83.70
2023-03-27T03:51:48.460Z,83.50
2023-03-27T03:57:33.124Z,85.90
2023-03-27T04:03:10.391Z,84.60
2023-03-27T04:08:39.438Z,84.00
2023-03-27T04:14:07.260Z,84.10
2023-03-27T04:19:41.843Z,84.70
2023-03-27T04:25:10.002Z,85.00
2023-03-27T04:30:38.742Z,84.80
2023-03-27T04:36:42.595Z,85.20
2023-03-27T04:42:16.571Z,84.90
2023-03-27T04:47:45.128Z,85.00
2023-03-27T04:53:13.104Z,85.40
2023-03-27T04:58:46.984Z,85.60
2023-03-27T05:04:17.327Z,86.20
2023-03-27T05:10:04.707Z,85.80
2023-03-27T05:15:33.702Z,85.90
2023-03-27T05:21:05.090Z,85.90
2023-03-27T05:26:33.985Z,86.10
2023-03-27T05:32:02.953Z,86.40
2023-03-27T05:37:48.021Z,86.60
2023-03-27T05:43:23.076Z,86.60
2023-03-27T05:54:19.339Z,86.30
2023-03-27T05:59:55.441Z,87.00
2023-03-27T06:05:29.332Z,87.20
2023-03-27T06:10:57.748Z,87.10
2023-03-27T06:16:34.193Z,86.60
2023-03-27T06:22:20.572Z,86.40
2023-03-27T06:27:51.633Z,87.00
2023-03-27T06:33:20.030Z,86.90
2023-03-27T06:38:48.607Z,86.90
2023-03-27T06:44:17.730Z,87.60
2023-03-27T06:50:09.128Z,87.00
2023-03-27T06:55:37.265Z,86.70
2023-03-27T07:01:05.515Z,86.80
2023-03-27T07:06:50.651Z,86.70
2023-03-27T07:12:19.061Z,86.70
2023-03-27T07:18:01.069Z,86.60
2023-03-27T07:23:29.122Z,86.80
2023-03-27T07:29:10.867Z,86.70
2023-03-27T07:34:40.098Z,86.90
2023-03-27T07:40:13.882Z,86.90
2023-03-27T07:45:46.178Z,87.00
2023-03-27T07:51:14.578Z,87.00
2023-03-27T07:56:43.543Z,87.00
2023-03-27T08:02:30.719Z,87.10
2023-03-27T08:07:58.747Z,87.00
2023-03-27T08:13:46.240Z,86.90
2023-03-27T08:19:14.260Z,87.10
2023-03-27T08:24:48.030Z,87.10
2023-03-27T08:30:26.129Z,87.10
2023-03-27T08:35:57.379Z,87.00
2023-03-27T08:41:38.798Z,86.70
2023-03-27T08:47:37.311Z,86.70
2023-03-27T08:53:42.078Z,86.90
2023-03-27T08:59:31.614Z,87.00
2023-03-27T09:05:08.714Z,87.10
2023-03-27T09:10:51.205Z,87.00
2023-03-27T09:16:37.603Z,87.10
2023-03-27T09:22:31.533Z,87.00
2023-03-27T09:28:31.206Z,86.90
2023-03-27T09:34:07.376Z,86.90
2023-03-27T09:39:39.240Z,86.80
2023-03-27T09:45:21.842Z,86.80
2023-03-27T09:50:59.010Z,86.90
2023-03-27T09:56:44.639Z,86.80
2023-03-27T10:02:27.292Z,86.60
2023-03-27T10:07:56.347Z,85.90
2023-03-27T10:13:52.317Z,86.10
2023-03-27T10:42:28.504Z,83.70
2023-03-27T10:59:40.503Z,82.30
2023-03-27T11:11:17.365Z,80.80
2023-03-27T11:34:57.616Z,79.70
2023-03-27T11:46:30.326Z,80.00
2023-03-27T11:57:57.533Z,75.60
2023-03-27T12:03:58.616Z,75.20
2023-03-27T12:16:22.748Z,75.40
2023-03-27T12:22:38.023Z,75.20
2023-03-27T12:28:35.084Z,78.00
2023-03-27T12:34:51.039Z,74.00
2023-03-27T12:40:48.562Z,80.20
2023-03-27T13:44:48.290Z,68.80
2023-03-27T14:02:46.886Z,82.60
2023-03-27T14:08:36.965Z,67.80
2023-03-27T14:14:35.640Z,61.30
2023-03-27T14:20:31.407Z,65.30
2023-03-27T14:26:24.642Z,65.40
2023-03-27T14:32:02.003Z,72.50
2023-03-27T14:37:37.034Z,64.60
2023-03-27T14:48:46.071Z,65.50
2023-03-27T14:54:31.366Z,66.20
2023-03-27T15:06:14.734Z,65.60
2023-03-27T15:11:56.842Z,56.10
2023-03-27T15:17:38.713Z,59.60
2023-03-27T15:29:09.395Z,64.30
2023-03-27T15:34:49.717Z,74.50
2023-03-27T16:08:29.167Z,59.80
2023-03-27T16:30:33.026Z,63.60
2023-03-27T16:46:58.162Z,76.90
2023-03-27T18:26:07.753Z,71.30
2023-03-27T18:31:36.177Z,85.60
2023-03-27T20:06:07.464Z,85.90
2023-03-27T20:39:21.946Z,75.70
2023-03-27T22:29:07.838Z,77.80
2023-03-27T23:23:54.409Z,77.60
2023-03-27T23:56:46.825Z,78.10
